createdAt,value
2023-03-18T00:01:03.147Z,19.22
2023-03-18T00:03:29.619Z,19.19
2023-03-18T00:05:56.352Z,19.16
2023-03-18T00:08:22.657Z,19.13
2023-03-18T00:10:49.004Z,19.10
2023-03-18T00:13:15.339Z,19.06
2023-03-18T00:15:41.744Z,19.04
2023-03-18T00:18:08.044Z,19.02
2023-03-18T00:20:34.337Z,18.99
2023-03-18T00:23:00.746Z,18.97
2023-03-18T00:25:30.281Z,18.96
2023-03-18T00:27:56.547Z,18.92
2023-03-18T00:30:22.838Z,18.89
2023-03-18T00:32:49.321Z,18.86
2023-03-18T00:35:15.706Z,18.85
2023-03-18T00:37:42.046Z,18.83
2023-03-18T00:40:08.348Z,18.80
2023-03-18T00:42:34.667Z,18.78
2023-03-18T00:45:00.976Z,18.74
2023-03-18T00:47:27.317Z,18.73
2023-03-18T00:49:53.841Z,18.72
2023-03-18T00:52:20.204Z,18.70
2023-03-18T00:54:47.026Z,18.67
2023-03-18T00:57:13.451Z,18.64
2023-03-18T00:59:39.879Z,18.63
2023-03-18T01:02:06.389Z,18.61
2023-03-18T01:04:32.928Z,18.58
2023-03-18T01:06:59.309Z,18.55
2023-03-18T01:09:25.832Z,18.53
2023-03-18T01:11:52.187Z,18.52
2023-03-18T01:14:18.527Z,18.50
2023-03-18T01:16:44.967Z,18.48
2023-03-18T01:19:11.443Z,18.47
2023-03-18T01:21:37.784Z,18.46
2023-03-18T01:24:04.106Z,18.44
2023-03-18T01:26:30.445Z,18.42
2023-03-18T01:28:56.731Z,18.41
2023-03-18T01:31:23.090Z,18.40
2023-03-18T01:33:49.493Z,18.38
2023-03-18T01:36:15.843Z,18.36
2023-03-18T01:38:42.216Z,18.35
2023-03-18T01:41:08.495Z,18.32
2023-03-18T01:43:34.834Z,18.31
2023-03-18T01:46:01.225Z,18.29
2023-03-18T01:48:27.550Z,18.27
2023-03-18T01:50:53.846Z,18.26
2023-03-18T01:53:20.126Z,18.24
2023-03-18T01:55:46.564Z,18.24
2023-03-18T01:58:12.840Z,18.22
2023-03-18T02:00:39.618Z,18.20
2023-03-18T02:03:05.944Z,18.18
2023-03-18T02:05:32.418Z,18.17
2023-03-18T02:08:01.789Z,18.17
2023-03-18T02:10:28.071Z,18.14
2023-03-18T02:12:54.470Z,18.15
2023-03-18T02:15:20.768Z,18.12
2023-03-18T02:17:47.262Z,18.11
2023-03-18T02:20:13.558Z,18.10
2023-03-18T02:22:39.906Z,18.08
2023-03-18T02:25:06.377Z,18.06
2023-03-18T02:27:32.725Z,18.05
2023-03-18T02:29:59.042Z,18.04
2023-03-18T02:32:25.544Z,18.02
2023-03-18T02:34:51.834Z,18.01
2023-03-18T02:37:18.155Z,18.00
2023-03-18T02:39:44.541Z,17.97
2023-03-18T02:42:10.858Z,17.96
2023-03-18T02:44:37.386Z,17.95
2023-03-18T02:47:03.681Z,17.93
2023-03-18T02:49:30.156Z,17.92
2023-03-18T02:51:56.486Z,17.91
2023-03-18T02:54:22.822Z,17.90
2023-03-18T02:56:49.082Z,17.89
2023-03-18T02:59:16.598Z,17.87
2023-03-18T03:01:42.971Z,17.86
2023-03-18T03:04:09.371Z,17.85
2023-03-18T03:06:35.691Z,17.85
2023-03-18T03:09:02.010Z,17.83
2023-03-18T03:11:28.375Z,17.81
2023-03-18T03:13:55.149Z,17.79
2023-03-18T03:16:21.440Z,17.77
2023-03-18T03:18:47.771Z,17.75
2023-03-18T03:21:14.116Z,17.74
2023-03-18T03:23:40.513Z,17.72
2023-03-18T03:26:06.828Z,17.70
2023-03-18T03:28:33.083Z,17.67
2023-03-18T03:30:59.497Z,17.67
2023-03-18T03:33:25.839Z,17.65
2023-03-18T03:35:52.202Z,17.63
2023-03-18T03:38:18.550Z,17.61
2023-03-18T03:40:45.099Z,17.59
2023-03-18T03:43:11.427Z,17.57
2023-03-18T03:45:37.756Z,17.55
2023-03-18T03:48:04.138Z,17.53
2023-03-18T03:50:30.820Z,17.51
2023-03-18T03:52:57.322Z,17.49
2023-03-18T03:55:23.663Z,17.46
2023-03-18T03:57:51.149Z,17.39
2023-03-18T04:00:17.876Z,17.43
2023-03-18T04:02:44.338Z,17.40
2023-03-18T04:05:10.655Z,17.38
2023-03-18T04:07:36.976Z,17.37
2023-03-18T04:10:03.464Z,17.35
2023-03-18T04:12:29.798Z,17.34
2023-03-18T04:14:56.248Z,17.31
2023-03-18T04:17:22.567Z,17.29
2023-03-18T04:19:48.835Z,17.27
2023-03-18T04:22:15.044Z,17.24
2023-03-18T04:24:41.427Z,17.22
2023-03-18T04:27:07.644Z,17.20
2023-03-18T04:29:37.435Z,17.19
2023-03-18T04:32:03.996Z,17.16
2023-03-18T04:34:30.338Z,17.15
2023-03-18T04:36:56.636Z,17.13
2023-03-18T04:39:22.930Z,17.12
2023-03-18T04:41:49.342Z,17.11
2023-03-18T04:44:15.689Z,17.08
2023-03-18T04:46:42.037Z,17.06
2023-03-18T04:49:08.460Z,17.03
2023-03-18T04:51:35.119Z,17.03
2023-03-18T04:54:01.451Z,17.01
2023-03-18T04:56:27.873Z,16.99
2023-03-18T04:58:54.317Z,16.97
2023-03-18T05:01:20.644Z,16.96
2023-03-18T05:03:47.022Z,16.94
2023-03-18T05:06:13.531Z,16.92
2023-03-18T05:08:40.138Z,16.90
2023-03-18T05:11:06.478Z,16.88
2023-03-18T05:13:32.845Z,16.86
2023-03-18T05:15:59.350Z,16.85
2023-03-18T05:18:25.638Z,16.84
2023-03-18T05:20:52.012Z,16.83
2023-03-18T05:23:18.341Z,16.82
2023-03-18T05:25:44.625Z,16.80
2023-03-18T05:28:11.440Z,16.79
2023-03-18T05:30:37.958Z,16.78
2023-03-18T05:33:04.417Z,16.77
2023-03-18T05:35:30.958Z,16.75
2023-03-18T05:37:57.896Z,16.74
2023-03-18T05:40:24.313Z,16.73
2023-03-18T05:42:56.167Z,16.73
2023-03-18T05:45:23.107Z,16.72
2023-03-18T05:47:49.578Z,16.71
2023-03-18T05:50:15.938Z,16.71
2023-03-18T05:52:42.291Z,16.70
2023-03-18T05:55:08.545Z,16.71
2023-03-18T05:57:34.855Z,16.69
2023-03-18T06:00:01.161Z,16.69
2023-03-18T06:02:27.443Z,16.70
2023-03-18T06:04:53.825Z,16.70
2023-03-18T06:07:20.154Z,16.71
2023-03-18T06:09:46.523Z,16.72
2023-03-18T06:12:12.820Z,16.73
2023-03-18T06:14:39.170Z,16.74
2023-03-18T06:17:05.525Z,16.76
2023-03-18T06:19:31.961Z,16.80
2023-03-18T06:24:42.414Z,16.86
2023-03-18T06:27:08.854Z,16.85
2023-03-18T06:29:35.181Z,16.87
2023-03-18T06:32:01.508Z,16.89
2023-03-18T06:34:27.781Z,16.93
2023-03-18T06:36:54.194Z,17.13
2023-03-18T06:39:20.684Z,17.22
2023-03-18T06:41:47.013Z,17.22
2023-03-18T06:44:13.497Z,17.25
2023-03-18T06:46:41.956Z,17.53
2023-03-18T06:49:09.839Z,17.65
2023-03-18T06:51:36.166Z,17.71
2023-03-18T06:54:02.575Z,17.66
2023-03-18T06:56:28.923Z,17.72
2023-03-18T06:58:55.240Z,17.93
2023-03-18T07:01:21.728Z,17.98
2023-03-18T07:03:48.095Z,18.05
2023-03-18T07:06:14.563Z,18.22
2023-03-18T07:08:40.897Z,18.30
2023-03-18T07:11:07.226Z,18.49
2023-03-18T07:13:33.577Z,18.69
2023-03-18T07:15:59.977Z,18.76
2023-03-18T07:18:26.376Z,19.00
2023-03-18T07:20:52.763Z,19.13
2023-03-18T07:23:19.098Z,19.24
2023-03-18T07:25:45.544Z,19.39
2023-03-18T07:28:11.896Z,19.52
2023-03-18T07:30:38.254Z,19.65
2023-03-18T07:33:04.787Z,19.77
2023-03-18T07:35:31.734Z,19.92
2023-03-18T07:37:58.201Z,20.06
2023-03-18T07:40:24.615Z,20.22
2023-03-18T07:42:50.946Z,20.37
2023-03-18T07:45:17.312Z,20.56
2023-03-18T07:47:45.308Z,20.72
2023-03-18T07:50:13.476Z,20.86
2023-03-18T07:52:39.795Z,20.97
2023-03-18T07:55:06.142Z,21.12
2023-03-18T07:57:32.566Z,21.28
2023-03-18T07:59:58.930Z,21.41
2023-03-18T08:02:25.268Z,21.51
2023-03-18T08:04:51.702Z,21.61
2023-03-18T08:07:18.195Z,21.79
2023-03-18T08:09:44.583Z,21.91
2023-03-18T08:12:10.874Z,22.06
2023-03-18T08:14:37.239Z,22.20
2023-03-18T08:17:03.575Z,22.32
2023-03-18T08:19:30.083Z,22.42
2023-03-18T08:21:56.426Z,22.55
2023-03-18T08:24:22.793Z,22.68
2023-03-18T08:26:55.386Z,22.84
2023-03-18T08:29:21.764Z,23.07
2023-03-18T08:31:48.201Z,23.30
2023-03-18T08:34:14.593Z,23.52
2023-03-18T08:36:41.010Z,23.67
2023-03-18T08:39:07.349Z,23.84
2023-03-18T08:41:33.702Z,24.01
2023-03-18T08:43:59.992Z,24.22
2023-03-18T08:46:26.371Z,24.34
2023-03-18T08:48:52.702Z,24.33
2023-03-18T08:51:19.071Z,24.35
2023-03-18T08:53:45.626Z,24.39
2023-03-18T08:56:12.041Z,23.99
2023-03-18T08:58:38.291Z,23.95
2023-03-18T09:01:04.644Z,24.31
2023-03-18T09:03:31.220Z,24.42
2023-03-18T09:05:57.714Z,23.14
2023-03-18T09:08:24.337Z,22.56
2023-03-18T09:10:50.864Z,22.31
2023-03-18T09:13:17.279Z,22.13
2023-03-18T09:15:43.682Z,22.82
2023-03-18T09:18:12.290Z,23.20
2023-03-18T09:20:38.879Z,23.17
2023-03-18T09:23:05.280Z,22.85
2023-03-18T09:25:31.954Z,22.21
2023-03-18T09:27:58.427Z,22.12
2023-03-18T09:30:24.830Z,22.08
2023-03-18T09:32:51.353Z,22.13
2023-03-18T09:35:17.821Z,22.01
2023-03-18T09:37:44.181Z,22.06
2023-03-18T09:40:10.597Z,21.96
2023-03-18T09:42:36.902Z,21.96
2023-03-18T09:45:06.377Z,22.02
2023-03-18T09:47:32.700Z,21.97
2023-03-18T09:49:59.006Z,21.82
2023-03-18T09:52:25.546Z,21.79
2023-03-18T09:54:51.935Z,21.84
2023-03-18T09:57:18.278Z,21.86
2023-03-18T09:59:44.656Z,21.81
2023-03-18T10:02:11.056Z,21.91
2023-03-18T10:04:37.434Z,21.89
2023-03-18T10:07:03.990Z,21.96
2023-03-18T10:09:30.380Z,21.96
2023-03-18T10:11:56.723Z,22.02
2023-03-18T10:14:23.006Z,21.98
2023-03-18T10:16:49.462Z,21.97
2023-03-18T10:19:15.886Z,22.05
2023-03-18T10:21:42.393Z,22.06
2023-03-18T10:24:08.801Z,22.10
2023-03-18T10:26:35.078Z,22.05
2023-03-18T10:29:01.590Z,22.07
2023-03-18T10:31:28.017Z,22.07
2023-03-18T10:33:54.429Z,21.97
2023-03-18T10:36:20.879Z,21.88
2023-03-18T10:38:47.173Z,21.83
2023-03-18T10:41:13.823Z,21.84
2023-03-18T10:43:41.433Z,21.85
2023-03-18T10:46:12.639Z,21.86
2023-03-18T10:48:39.105Z,21.78
2023-03-18T10:51:05.751Z,21.85
2023-03-18T10:53:32.138Z,21.82
2023-03-18T10:55:58.575Z,21.84
2023-03-18T10:58:24.911Z,21.88
2023-03-18T11:00:51.238Z,21.89
2023-03-18T11:03:17.621Z,21.93
2023-03-18T11:05:43.936Z,21.96
2023-03-18T11:08:10.433Z,22.01
2023-03-18T11:10:37.892Z,22.00
2023-03-18T11:13:04.329Z,21.97
2023-03-18T11:15:30.648Z,21.98
2023-03-18T11:17:57.321Z,21.93
2023-03-18T11:20:23.665Z,21.90
2023-03-18T11:22:49.996Z,21.92
2023-03-18T11:25:16.404Z,21.96
2023-03-18T11:27:42.702Z,21.96
2023-03-18T11:30:09.070Z,21.92
2023-03-18T11:32:35.418Z,21.92
2023-03-18T11:35:01.864Z,21.95
2023-03-18T11:37:28.168Z,21.96
2023-03-18T11:39:58.979Z,22.01
2023-03-18T11:42:25.541Z,22.04
2023-03-18T11:44:51.884Z,22.07
2023-03-18T11:47:18.231Z,22.08
2023-03-18T11:49:44.512Z,22.11
2023-03-18T11:52:10.826Z,22.10
2023-03-18T11:54:37.874Z,22.10
2023-03-18T11:57:04.167Z,22.07
2023-03-18T11:59:30.493Z,22.07
2023-03-18T12:01:56.927Z,22.09
2023-03-18T12:04:23.270Z,22.09
2023-03-18T12:06:49.591Z,22.13
2023-03-18T12:09:16.006Z,22.17
2023-03-18T12:11:42.326Z,22.18
2023-03-18T12:14:08.631Z,22.21
2023-03-18T12:16:35.209Z,22.26
2023-03-18T12:19:01.707Z,22.28
2023-03-18T12:21:28.024Z,22.27
2023-03-18T12:23:54.425Z,22.25
2023-03-18T12:26:20.868Z,22.23
2023-03-18T12:28:47.134Z,22.28
2023-03-18T12:31:14.261Z,22.32
2023-03-18T12:33:40.668Z,22.36
2023-03-18T12:36:10.102Z,22.46
2023-03-18T12:38:36.418Z,22.56
2023-03-18T12:41:02.700Z,22.56
2023-03-18T12:43:29.030Z,22.59
2023-03-18T12:45:55.465Z,22.60
2023-03-18T12:48:36.825Z,22.61
2023-03-18T12:51:11.402Z,22.63
2023-03-18T12:53:37.724Z,22.62
2023-03-18T12:56:04.021Z,22.64
2023-03-18T12:58:30.371Z,22.63
2023-03-18T13:00:57.089Z,22.65
2023-03-18T13:03:31.504Z,22.66
2023-03-18T13:05:59.536Z,22.70
2023-03-18T13:08:26.125Z,22.73
2023-03-18T13:10:52.555Z,22.79
2023-03-18T13:13:18.786Z,22.83
2023-03-18T13:15:45.186Z,22.87
2023-03-18T13:18:11.518Z,22.85
2023-03-18T13:20:37.875Z,22.83
2023-03-18T13:23:04.244Z,22.82
2023-03-18T13:25:30.748Z,22.87
2023-03-18T13:27:57.288Z,22.89
2023-03-18T13:30:23.585Z,22.90
2023-03-18T13:32:50.123Z,22.90
2023-03-18T13:38:00.997Z,22.93
2023-03-18T13:40:28.053Z,22.91
2023-03-18T13:42:54.438Z,22.89
2023-03-18T13:45:20.826Z,22.88
2023-03-18T13:47:47.675Z,22.90
2023-03-18T13:50:14.103Z,22.89
2023-03-18T13:52:40.445Z,22.88
2023-03-18T13:55:06.814Z,22.87
2023-03-18T13:57:33.118Z,22.88
2023-03-18T13:59:59.486Z,22.88
2023-03-18T14:02:25.764Z,22.89
2023-03-18T14:04:52.179Z,22.89
2023-03-18T14:07:18.521Z,22.89
2023-03-18T14:09:47.866Z,22.91
2023-03-18T14:12:14.199Z,22.90
2023-03-18T14:14:40.578Z,22.91
2023-03-18T14:17:06.926Z,22.92
2023-03-18T14:19:33.329Z,22.92
2023-03-18T14:21:59.676Z,22.93
2023-03-18T14:24:26.052Z,22.93
2023-03-18T14:26:52.324Z,22.93
2023-03-18T14:29:18.707Z,22.93
2023-03-18T14:31:45.082Z,22.94
2023-03-18T14:34:11.464Z,22.94
2023-03-18T14:36:37.893Z,22.94
2023-03-18T14:39:04.242Z,22.94
2023-03-18T14:41:30.633Z,22.93
2023-03-18T14:43:57.109Z,22.93
2023-03-18T14:46:23.797Z,22.92
2023-03-18T14:48:50.546Z,22.92
2023-03-18T14:51:16.981Z,22.90
2023-03-18T14:53:43.321Z,22.90
2023-03-18T14:56:09.660Z,22.89
2023-03-18T14:58:35.960Z,22.89
2023-03-18T15:01:02.421Z,22.87
2023-03-18T15:03:28.795Z,22.85
2023-03-18T15:05:55.093Z,22.84
2023-03-18T15:08:21.415Z,22.82
2023-03-18T15:10:47.791Z,22.83
2023-03-18T15:13:14.360Z,22.82
2023-03-18T15:15:40.766Z,22.81
2023-03-18T15:18:07.087Z,22.80
2023-03-18T15:20:33.540Z,22.79
2023-03-18T15:22:59.996Z,22.79
2023-03-18T15:25:26.335Z,22.79
2023-03-18T15:27:52.639Z,22.79
2023-03-18T15:30:19.029Z,22.78
2023-03-18T15:32:45.409Z,22.77
2023-03-18T15:35:11.867Z,22.75
2023-03-18T15:37:38.174Z,22.74
2023-03-18T15:40:04.480Z,22.74
2023-03-18T15:42:30.786Z,22.72
2023-03-18T15:44:57.690Z,22.70
2023-03-18T15:47:24.462Z,22.70
2023-03-18T15:49:56.737Z,22.68
2023-03-18T15:52:23.141Z,22.68
2023-03-18T15:57:45.564Z,22.67
2023-03-18T16:00:12.071Z,22.67
2023-03-18T16:02:38.507Z,22.67
2023-03-18T16:05:04.989Z,22.65
2023-03-18T16:07:31.697Z,22.65
2023-03-18T16:09:58.118Z,22.65
2023-03-18T16:12:24.375Z,22.64
2023-03-18T16:14:50.895Z,22.64
2023-03-18T16:17:19.006Z,22.63
2023-03-18T16:19:46.890Z,22.63
2023-03-18T16:22:13.305Z,22.63
2023-03-18T16:24:49.041Z,22.61
2023-03-18T16:27:15.453Z,22.60
2023-03-18T16:29:41.840Z,22.59
2023-03-18T16:32:08.308Z,22.58
2023-03-18T16:34:34.770Z,22.57
2023-03-18T16:37:01.215Z,22.54
2023-03-18T16:39:27.716Z,22.53
2023-03-18T16:42:03.584Z,22.53
2023-03-18T16:44:29.853Z,22.50
2023-03-18T16:46:56.244Z,22.49
2023-03-18T16:49:22.743Z,22.48
2023-03-18T16:51:49.077Z,22.47
2023-03-18T16:54:15.398Z,22.45
2023-03-18T16:56:41.848Z,22.45
2023-03-18T16:59:08.177Z,22.42
2023-03-18T17:01:34.609Z,22.42
2023-03-18T17:04:01.099Z,22.40
2023-03-18T17:06:27.426Z,22.38
2023-03-18T17:08:53.839Z,22.36
2023-03-18T17:11:20.170Z,22.34
2023-03-18T17:13:46.518Z,22.32
2023-03-18T17:16:13.112Z,22.32
2023-03-18T17:18:39.490Z,22.30
2023-03-18T17:21:05.801Z,22.29
2023-03-18T17:23:32.074Z,22.27
2023-03-18T17:25:58.381Z,22.26
2023-03-18T17:28:24.686Z,22.24
2023-03-18T17:30:51.007Z,22.24
2023-03-18T17:33:17.466Z,22.21
2023-03-18T17:35:43.732Z,22.21
2023-03-18T17:38:10.954Z,22.20
2023-03-18T17:40:37.362Z,22.18
2023-03-18T17:43:03.670Z,22.16
2023-03-18T17:45:29.942Z,22.15
2023-03-18T17:47:56.226Z,22.14
2023-03-18T17:50:22.538Z,22.12
2023-03-18T17:52:48.940Z,22.10
2023-03-18T17:55:15.217Z,22.08
2023-03-18T17:57:41.520Z,22.07
2023-03-18T18:00:07.746Z,22.05
2023-03-18T18:02:34.113Z,22.04
2023-03-18T18:05:00.436Z,22.03
2023-03-18T18:07:26.734Z,22.01
2023-03-18T18:09:53.166Z,21.99
2023-03-18T18:12:19.537Z,21.98
2023-03-18T18:14:45.795Z,21.96
2023-03-18T18:17:12.129Z,21.95
2023-03-18T18:19:38.479Z,21.93
2023-03-18T18:22:04.874Z,21.91
2023-03-18T18:24:31.164Z,21.90
2023-03-18T18:26:57.467Z,21.88
2023-03-18T18:29:23.969Z,21.88
2023-03-18T18:31:50.259Z,21.86
2023-03-18T18:34:16.546Z,21.84
2023-03-18T18:36:42.893Z,21.83
2023-03-18T18:39:09.196Z,21.81
2023-03-18T18:41:35.512Z,21.78
2023-03-18T18:44:01.988Z,21.78
2023-03-18T18:46:28.403Z,21.76
2023-03-18T18:48:54.772Z,21.74
2023-03-18T18:51:21.204Z,21.73
2023-03-18T18:53:47.620Z,21.71
2023-03-18T18:56:14.019Z,21.68
2023-03-18T18:58:40.484Z,21.67
2023-03-18T19:01:06.992Z,21.65
2023-03-18T19:03:33.438Z,21.63
2023-03-18T19:05:59.807Z,21.62
2023-03-18T19:08:26.184Z,21.60
2023-03-18T19:10:52.501Z,21.59
2023-03-18T19:13:18.844Z,21.59
2023-03-18T19:15:45.371Z,21.57
2023-03-18T19:18:12.265Z,21.56
2023-03-18T19:20:38.955Z,21.57
2023-03-18T19:23:14.552Z,21.55
2023-03-18T19:25:41.008Z,21.54
2023-03-18T19:28:07.283Z,21.54
2023-03-18T19:30:33.555Z,21.53
2023-03-18T19:33:03.033Z,21.52
2023-03-18T19:35:29.402Z,21.52
2023-03-18T19:37:55.665Z,21.52
2023-03-18T19:40:22.014Z,21.52
2023-03-18T19:42:48.332Z,21.50
2023-03-18T19:45:14.769Z,21.49
2023-03-18T19:47:41.196Z,21.48
2023-03-18T19:50:07.457Z,21.47
2023-03-18T19:52:33.798Z,21.45
2023-03-18T19:55:00.207Z,21.44
2023-03-18T19:57:26.429Z,21.44
2023-03-18T19:59:52.728Z,21.41
2023-03-18T20:02:19.066Z,21.41
2023-03-18T20:04:45.356Z,21.40
2023-03-18T20:07:11.667Z,21.39
2023-03-18T20:09:38.015Z,21.39
2023-03-18T20:12:04.717Z,21.37
2023-03-18T20:14:31.147Z,21.35
2023-03-18T20:17:02.120Z,21.34
2023-03-18T20:19:29.031Z,21.33
2023-03-18T20:21:55.526Z,21.32
2023-03-18T20:24:21.875Z,21.30
2023-03-18T20:26:48.168Z,21.29
2023-03-18T20:29:14.822Z,21.29
2023-03-18T20:31:41.188Z,21.28
2023-03-18T20:34:07.469Z,21.27
2023-03-18T20:36:34.148Z,21.27
2023-03-18T20:39:00.558Z,21.26
2023-03-18T20:41:26.987Z,21.26
2023-03-18T20:43:53.649Z,21.26
2023-03-18T20:46:23.818Z,21.27
2023-03-18T20:48:51.809Z,21.26
2023-03-18T20:51:18.181Z,21.25
2023-03-18T20:53:44.602Z,21.24
2023-03-18T20:56:11.010Z,21.24
2023-03-18T20:58:37.397Z,21.23
2023-03-18T21:01:04.309Z,21.23
2023-03-18T21:03:32.170Z,21.22
2023-03-18T21:05:58.590Z,21.22
2023-03-18T21:08:24.921Z,21.20
2023-03-18T21:10:51.322Z,21.19
2023-03-18T21:13:17.785Z,21.19
2023-03-18T21:15:44.304Z,21.18
2023-03-18T21:18:10.663Z,21.18
2023-03-18T21:20:37.323Z,21.17
2023-03-18T21:23:03.822Z,21.17
2023-03-18T21:25:30.313Z,21.16
2023-03-18T21:27:57.052Z,21.15
2023-03-18T21:30:23.904Z,21.15
2023-03-18T21:32:51.247Z,21.14
2023-03-18T21:35:18.164Z,21.14
2023-03-18T21:37:47.399Z,21.13
2023-03-18T21:40:14.303Z,21.12
2023-03-18T21:42:40.780Z,21.11
2023-03-18T21:45:07.162Z,21.11
2023-03-18T21:47:33.604Z,21.10
2023-03-18T21:50:00.219Z,21.08
2023-03-18T21:52:26.571Z,21.10
2023-03-18T21:54:53.634Z,21.09
2023-03-18T21:57:20.417Z,21.08
2023-03-18T21:59:47.258Z,21.08
2023-03-18T22:02:13.786Z,21.07
2023-03-18T22:04:40.238Z,20.98
2023-03-18T22:07:06.979Z,21.06
2023-03-18T22:09:33.501Z,21.06
2023-03-18T22:11:59.945Z,21.05
2023-03-18T22:14:26.701Z,21.04
2023-03-18T22:16:53.102Z,21.04
2023-03-18T22:19:19.417Z,21.04
2023-03-18T22:21:46.326Z,21.03
2023-03-18T22:24:12.816Z,21.01
2023-03-18T22:26:39.182Z,20.95
2023-03-18T22:29:05.546Z,20.90
2023-03-18T22:31:32.054Z,20.84
2023-03-18T22:33:58.400Z,20.77
2023-03-18T22:36:25.091Z,20.73
2023-03-18T22:38:51.848Z,20.69
2023-03-18T22:41:18.218Z,20.64
2023-03-18T22:43:44.948Z,20.60
2023-03-18T22:46:11.347Z,20.57
2023-03-18T22:48:37.731Z,20.53
2023-03-18T22:51:04.435Z,20.47
2023-03-18T22:53:31.034Z,20.43
2023-03-18T22:55:57.414Z,20.39
2023-03-18T22:58:23.818Z,20.36
2023-03-18T23:00:50.298Z,20.33
2023-03-18T23:03:16.673Z,20.29
2023-03-18T23:05:43.288Z,20.25
2023-03-18T23:08:09.572Z,20.22
2023-03-18T23:10:35.897Z,20.18
2023-03-18T23:13:02.202Z,20.14
2023-03-18T23:15:28.475Z,20.11
2023-03-18T23:17:54.784Z,20.09
2023-03-18T23:20:21.181Z,20.07
2023-03-18T23:22:48.252Z,20.04
2023-03-18T23:25:14.630Z,20.02
2023-03-18T23:27:40.924Z,19.99
2023-03-18T23:30:07.199Z,19.98
2023-03-18T23:32:33.535Z,19.96
2023-03-18T23:34:59.822Z,19.93
2023-03-18T23:37:26.252Z,19.91
2023-03-18T23:39:52.603Z,19.89
2023-03-18T23:42:18.902Z,19.87
2023-03-18T23:44:45.188Z,19.85
2023-03-18T23:47:11.474Z,19.84
2023-03-18T23:49:37.732Z,19.82
2023-03-18T23:52:04.056Z,19.79
2023-03-18T23:54:30.349Z,19.79
2023-03-18T23:56:56.623Z,19.76
2023-03-18T23:59:22.970Z,19.75
